Time;durP1;ratioP1;P1;durP2;ratioP2;P2;SDS_P1;SDS_P2;PMS_P1;PMS_P2;Temp;Humidity;BMP_temperature;BMP_pressure;BME280_temperature;BME280_humidity;BME280_pressure;Samples;Min_cycle;Max_cycle;Signal;HPM_P1;HPM_P2
2021/08/27 00:00:58;;;;;;;16.13;3.57;;;;;;;;;;5033976;28;20021;-70
2021/08/27 00:03:23;;;;;;;10.13;3.47;;;;;;;;;;5033635;28;20302;-70
2021/08/27 00:05:49;;;;;;;13.77;3.87;;;;;;;;;;5034265;28;20033;-70
2021/08/27 00:08:14;;;;;;;20.15;4.18;;;;;;;;;;5034112;28;20340;-70
2021/08/27 00:10:43;;;;;;;12.70;3.42;;;;;;;;;;5076500;23;20119;-92
2021/08/27 00:13:11;;;;;;;14.15;4.05;;;;;;;;;;5083466;28;20016;-92
2021/08/27 00:15:36;;;;;;;10.48;3.13;;;;;;;;;;5097004;28;20310;-92
2021/08/27 00:18:02;;;;;;;14.32;2.97;;;;;;;;;;5097527;28;20012;-91
2021/08/27 00:20:28;;;;;;;10.85;2.97;;;;;;;;;;5097652;28;20015;-92
2021/08/27 00:22:53;;;;;;;19.45;2.72;;;;;;;;;;5095550;28;20498;-91
2021/08/27 00:25:18;;;;;;;7.82;2.30;;;;;;;;;;5111609;28;20427;-92
2021/08/27 00:27:44;;;;;;;14.52;4.50;;;;;;;;;;5093337;28;20020;-92
2021/08/27 00:30:10;;;;;;;14.30;2.97;;;;;;;;;;5084349;28;20020;-92
2021/08/27 00:32:35;;;;;;;16.75;3.17;;;;;;;;;;5094815;28;20042;-92
2021/08/27 00:35:04;;;;;;;15.23;3.00;;;;;;;;;;5113651;28;20081;-92
2021/08/27 00:37:38;;;;;;;13.77;2.50;;;;;;;;;;5112289;28;20039;-71
2021/08/27 00:40:04;;;;;;;9.27;2.80;;;;;;;;;;5113716;28;20069;-70
2021/08/27 00:42:29;;;;;;;14.63;2.90;;;;;;;;;;5113673;28;20073;-70
2021/08/27 00:44:55;;;;;;;10.30;2.70;;;;;;;;;;5113954;28;20110;-70
2021/08/27 00:47:20;;;;;;;23.65;3.30;;;;;;;;;;5113697;28;20322;-70
2021/08/27 00:49:46;;;;;;;12.52;2.97;;;;;;;;;;5113365;28;20102;-71
2021/08/27 00:52:11;;;;;;;14.25;2.85;;;;;;;;;;5109450;28;20355;-70
2021/08/27 00:54:38;;;;;;;11.88;3.08;;;;;;;;;;5093246;28;20523;-70
2021/08/27 00:57:07;;;;;;;16.67;3.25;;;;;;;;;;5092186;28;20052;-69
2021/08/27 00:59:32;;;;;;;14.93;3.50;;;;;;;;;;5093424;28;20020;-70
2021/08/27 01:01:57;;;;;;;10.95;3.20;;;;;;;;;;5104784;28;20042;-70
2021/08/27 01:04:22;;;;;;;21.63;2.90;;;;;;;;;;5092953;28;20481;-70
2021/08/27 01:07:08;;;;;;;8.77;3.10;;;;;;;;;;5093340;28;20394;-69
2021/08/27 01:09:33;;;;;;;13.85;3.10;;;;;;;;;;5092477;28;20032;-70
2021/08/27 01:12:05;;;;;;;13.38;3.03;;;;;;;;;;5096952;28;20076;-70
2021/08/27 01:14:32;;;;;;;6.15;2.72;;;;;;;;;;5113730;28;20397;-70
2021/08/27 01:17:02;;;;;;;12.60;3.05;;;;;;;;;;5112042;28;20016;-70
2021/08/27 01:19:39;;;;;;;10.48;2.65;;;;;;;;;;5114215;28;20031;-70
2021/08/27 01:22:18;;;;;;;9.15;2.75;;;;;;;;;;5113510;28;20102;-70
2021/08/27 01:24:45;;;;;;;14.27;3.05;;;;;;;;;;5106161;28;20054;-70
2021/08/27 01:27:12;;;;;;;11.90;3.05;;;;;;;;;;5099138;28;20027;-70
2021/08/27 01:29:44;;;;;;;10.68;3.05;;;;;;;;;;5074823;28;20371;-70
2021/08/27 01:32:12;;;;;;;13.82;3.58;;;;;;;;;;5111560;28;20038;-70
2021/08/27 01:34:39;;;;;;;18.85;3.38;;;;;;;;;;5113027;28;20185;-70
2021/08/27 01:37:09;;;;;;;12.27;2.85;;;;;;;;;;5112851;28;20034;-70
2021/08/27 01:39:37;;;;;;;12.73;3.08;;;;;;;;;;5112933;28;20077;-70
2021/08/27 01:42:03;;;;;;;12.20;3.72;;;;;;;;;;5113032;28;20019;-70
2021/08/27 01:44:29;;;;;;;17.30;4.20;;;;;;;;;;5107629;28;20111;-69
2021/08/27 01:46:56;;;;;;;14.05;2.65;;;;;;;;;;5092312;28;20110;-70
2021/08/27 01:49:21;;;;;;;16.67;3.28;;;;;;;;;;5101462;28;20039;-70
2021/08/27 01:51:47;;;;;;;16.60;4.45;;;;;;;;;;5104965;28;20027;-69
2021/08/27 01:54:13;;;;;;;22.45;6.05;;;;;;;;;;5091933;28;20498;-70
2021/08/27 01:56:39;;;;;;;11.50;3.35;;;;;;;;;;5092005;28;20019;-69
2021/08/27 01:59:06;;;;;;;8.05;3.65;;;;;;;;;;5101614;28;20099;-70
2021/08/27 02:01:31;;;;;;;11.95;3.15;;;;;;;;;;5097538;28;20028;-69
2021/08/27 02:04:00;;;;;;;8.80;2.53;;;;;;;;;;5091801;28;20704;-70
2021/08/27 02:06:26;;;;;;;11.48;3.60;;;;;;;;;;5091803;28;20023;-69
2021/08/27 02:08:51;;;;;;;15.93;3.63;;;;;;;;;;5092113;28;20095;-70
2021/08/27 02:11:18;;;;;;;15.40;3.83;;;;;;;;;;5091948;28;20727;-69
2021/08/27 02:13:43;;;;;;;14.45;3.92;;;;;;;;;;5093774;28;20020;-69
2021/08/27 02:16:09;;;;;;;14.45;4.30;;;;;;;;;;5092190;28;20068;-70
2021/08/27 02:18:35;;;;;;;15.50;3.55;;;;;;;;;;5092493;28;20493;-70
2021/08/27 02:21:02;;;;;;;10.95;3.60;;;;;;;;;;5092399;28;20031;-70
2021/08/27 02:23:28;;;;;;;20.83;3.70;;;;;;;;;;5090659;28;20024;-70
2021/08/27 02:25:54;;;;;;;15.52;4.50;;;;;;;;;;5092458;28;20084;-70
2021/08/27 02:28:19;;;;;;;18.08;3.90;;;;;;;;;;5112149;28;20030;-70
2021/08/27 02:30:46;;;;;;;9.48;3.90;;;;;;;;;;5112507;28;20660;-70
2021/08/27 02:33:11;;;;;;;9.88;3.53;;;;;;;;;;5111973;28;20446;-70
2021/08/27 02:35:37;;;;;;;9.70;3.70;;;;;;;;;;5111797;28;20080;-70
2021/08/27 02:38:03;;;;;;;14.10;4.07;;;;;;;;;;5109195;28;20012;-70
2021/08/27 02:40:28;;;;;;;14.35;3.72;;;;;;;;;;5096427;28;20585;-70
2021/08/27 02:42:54;;;;;;;12.63;3.72;;;;;;;;;;5112012;28;20051;-70
2021/08/27 02:45:19;;;;;;;25.92;4.43;;;;;;;;;;5112104;28;20039;-70
2021/08/27 02:47:44;;;;;;;15.10;3.55;;;;;;;;;;5111703;28;20055;-70
2021/08/27 02:50:12;;;;;;;18.17;4.00;;;;;;;;;;5099319;28;20036;-70
2021/08/27 02:52:41;;;;;;;15.50;3.85;;;;;;;;;;5091110;28;20254;-70
2021/08/27 02:55:08;;;;;;;14.73;3.78;;;;;;;;;;5101387;28;20028;-70
2021/08/27 02:57:57;;;;;;;25.33;4.40;;;;;;;;;;5111758;28;20080;-70
2021/08/27 03:00:22;;;;;;;25.13;4.57;;;;;;;;;;5084650;28;20552;-70
2021/08/27 03:02:48;;;;;;;8.65;3.53;;;;;;;;;;5110791;28;20054;-70
2021/08/27 03:05:19;;;;;;;17.73;3.75;;;;;;;;;;5092971;28;20024;-70
2021/08/27 03:07:49;;;;;;;24.50;4.93;;;;;;;;;;5111229;28;20039;-70
2021/08/27 03:10:18;;;;;;;30.77;5.70;;;;;;;;;;5097911;28;20027;-70
2021/08/27 03:12:58;;;;;;;21.23;3.47;;;;;;;;;;5110810;28;20027;-69
2021/08/27 03:15:27;;;;;;;12.45;3.65;;;;;;;;;;5110990;28;20122;-69
2021/08/27 03:17:53;;;;;;;7.70;3.13;;;;;;;;;;5111194;28;20091;-70
2021/08/27 03:20:25;;;;;;;23.42;3.70;;;;;;;;;;5109780;28;20027;-70
2021/08/27 03:22:52;;;;;;;15.80;3.40;;;;;;;;;;5110138;28;20023;-69
2021/08/27 03:25:18;;;;;;;12.77;3.60;;;;;;;;;;5094698;28;20031;-70
2021/08/27 03:27:45;;;;;;;14.35;3.38;;;;;;;;;;5090797;28;20020;-70
2021/08/27 03:30:12;;;;;;;18.25;4.13;;;;;;;;;;5094446;28;20401;-70
2021/08/27 03:32:38;;;;;;;10.60;3.75;;;;;;;;;;5090321;28;20615;-70
2021/08/27 03:35:03;;;;;;;30.50;4.88;;;;;;;;;;5090499;28;20077;-70
2021/08/27 03:37:31;;;;;;;14.85;3.25;;;;;;;;;;5090934;28;20478;-70
2021/08/27 03:39:56;;;;;;;16.02;3.17;;;;;;;;;;5110353;28;20028;-70
2021/08/27 03:42:22;;;;;;;26.27;5.47;;;;;;;;;;5110774;28;20022;-70
2021/08/27 03:44:48;;;;;;;18.45;3.60;;;;;;;;;;5110925;28;20031;-70
2021/08/27 03:47:13;;;;;;;10.50;3.65;;;;;;;;;;5110803;28;20023;-70
2021/08/27 03:49:39;;;;;;;17.40;4.05;;;;;;;;;;5110752;28;20023;-70
2021/08/27 03:52:04;;;;;;;13.48;3.70;;;;;;;;;;5104497;28;20020;-69
2021/08/27 03:54:29;;;;;;;13.73;4.25;;;;;;;;;;5090050;28;20028;-69
2021/08/27 03:56:55;;;;;;;13.65;3.30;;;;;;;;;;5090633;28;20016;-70
2021/08/27 03:59:21;;;;;;;10.85;4.10;;;;;;;;;;5096503;28;20477;-69
2021/08/27 04:01:46;;;;;;;14.68;4.43;;;;;;;;;;5110383;28;20016;-69
2021/08/27 04:04:21;;;;;;;13.95;4.53;;;;;;;;;;5110345;28;20020;-69
2021/08/27 04:06:52;;;;;;;10.80;3.55;;;;;;;;;;5098433;28;20152;-69
2021/08/27 04:09:17;;;;;;;11.80;4.57;;;;;;;;;;5094756;28;20020;-69
2021/08/27 04:11:42;;;;;;;18.17;4.57;;;;;;;;;;5110310;28;20531;-69
2021/08/27 04:14:07;;;;;;;12.27;3.80;;;;;;;;;;5110138;28;20273;-69
2021/08/27 04:16:33;;;;;;;25.10;4.00;;;;;;;;;;5110356;28;20878;-70
2021/08/27 04:18:58;;;;;;;20.80;3.80;;;;;;;;;;5108454;28;20234;-69
2021/08/27 04:21:23;;;;;;;15.43;3.53;;;;;;;;;;5091073;28;20258;-69
2021/08/27 04:23:48;;;;;;;14.83;4.07;;;;;;;;;;5109897;28;20367;-69
2021/08/27 04:26:16;;;;;;;18.77;4.37;;;;;;;;;;5110757;28;20284;-69
2021/08/27 04:28:41;;;;;;;18.45;3.80;;;;;;;;;;5110378;28;20669;-69
2021/08/27 04:31:06;;;;;;;12.27;3.57;;;;;;;;;;5110946;28;20098;-69
2021/08/27 04:33:32;;;;;;;15.48;3.63;;;;;;;;;;5095304;28;20281;-69
2021/08/27 04:35:57;;;;;;;20.33;3.60;;;;;;;;;;5110842;28;20059;-69
2021/08/27 04:38:22;;;;;;;17.55;3.75;;;;;;;;;;5113893;28;20249;-69
2021/08/27 04:40:47;;;;;;;15.23;3.40;;;;;;;;;;5113787;28;20098;-69
2021/08/27 04:43:12;;;;;;;11.80;4.45;;;;;;;;;;5112957;28;20664;-70
2021/08/27 04:45:38;;;;;;;25.73;4.60;;;;;;;;;;5113741;28;20054;-69
2021/08/27 04:48:04;;;;;;;17.90;3.50;;;;;;;;;;5109004;28;20628;-69
2021/08/27 04:50:29;;;;;;;25.85;3.72;;;;;;;;;;5093191;28;20411;-69
2021/08/27 04:52:54;;;;;;;19.90;3.47;;;;;;;;;;5093049;28;20558;-70
2021/08/27 04:55:20;;;;;;;13.05;4.03;;;;;;;;;;5075336;28;20446;-69
2021/08/27 04:57:45;;;;;;;11.85;3.20;;;;;;;;;;5100594;28;20149;-69
2021/08/27 05:00:10;;;;;;;8.40;3.53;;;;;;;;;;5093199;28;20141;-69
2021/08/27 05:02:36;;;;;;;17.67;4.05;;;;;;;;;;5102233;28;20255;-69
2021/08/27 05:05:02;;;;;;;15.00;3.80;;;;;;;;;;5093321;28;20020;-69
2021/08/27 05:07:27;;;;;;;13.38;4.75;;;;;;;;;;5093354;28;20103;-70
2021/08/27 05:09:52;;;;;;;10.50;3.50;;;;;;;;;;5092959;28;20035;-70
2021/08/27 05:12:18;;;;;;;14.52;3.55;;;;;;;;;;5093904;28;20273;-70
2021/08/27 05:14:43;;;;;;;17.73;3.58;;;;;;;;;;5092728;28;20032;-70
2021/08/27 05:17:08;;;;;;;12.27;3.63;;;;;;;;;;5093044;28;20020;-70
2021/08/27 05:19:33;;;;;;;15.97;3.63;;;;;;;;;;5092678;28;20258;-70
2021/08/27 05:21:58;;;;;;;12.03;3.20;;;;;;;;;;5092510;28;20286;-70
2021/08/27 05:24:24;;;;;;;16.97;3.57;;;;;;;;;;5092589;28;20250;-70
2021/08/27 05:26:49;;;;;;;18.17;3.88;;;;;;;;;;5107884;28;20257;-70
2021/08/27 05:29:14;;;;;;;23.27;5.30;;;;;;;;;;5112812;28;20034;-70
2021/08/27 05:31:39;;;;;;;18.35;3.38;;;;;;;;;;5112616;28;20658;-70
2021/08/27 05:34:07;;;;;;;17.17;3.92;;;;;;;;;;5112520;28;20099;-70
2021/08/27 05:36:32;;;;;;;17.02;3.00;;;;;;;;;;5112519;28;20485;-70
2021/08/27 05:38:57;;;;;;;10.48;3.38;;;;;;;;;;5104145;28;20032;-70
2021/08/27 05:41:22;;;;;;;17.95;3.47;;;;;;;;;;5112437;28;20016;-70
2021/08/27 05:43:47;;;;;;;17.73;4.13;;;;;;;;;;5112316;28;20035;-70
2021/08/27 05:46:13;;;;;;;21.77;3.60;;;;;;;;;;5112528;28;20345;-70
2021/08/27 05:48:38;;;;;;;12.30;3.20;;;;;;;;;;5094271;28;20287;-70
2021/08/27 05:51:03;;;;;;;16.70;3.53;;;;;;;;;;5112152;28;20039;-70
2021/08/27 05:53:28;;;;;;;19.05;3.00;;;;;;;;;;5107086;28;20283;-70
2021/08/27 05:55:54;;;;;;;16.58;3.08;;;;;;;;;;5091971;28;20016;-70
2021/08/27 05:58:21;;;;;;;22.33;3.30;;;;;;;;;;5092029;28;20023;-70
2021/08/27 06:00:46;;;;;;;10.85;2.92;;;;;;;;;;5091729;28;20012;-70
2021/08/27 06:03:11;;;;;;;16.40;3.10;;;;;;;;;;5095870;28;20487;-70
2021/08/27 06:05:37;;;;;;;19.50;2.87;;;;;;;;;;5106489;28;20269;-70
2021/08/27 06:08:02;;;;;;;13.88;3.28;;;;;;;;;;5112295;28;20253;-70
2021/08/27 06:10:27;;;;;;;21.87;2.70;;;;;;;;;;5156979;22;20043;-64
2021/08/27 06:12:52;;;;;;;10.90;2.58;;;;;;;;;;5081553;28;20295;-67
2021/08/27 06:15:17;;;;;;;20.23;2.60;;;;;;;;;;5072216;28;20032;-68
2021/08/27 06:17:43;;;;;;;17.42;3.30;;;;;;;;;;5091296;28;20422;-67
2021/08/27 06:20:09;;;;;;;9.27;3.90;;;;;;;;;;5088854;28;20019;-67
2021/08/27 06:22:34;;;;;;;15.60;3.00;;;;;;;;;;5070675;28;20023;-68
2021/08/27 06:25:00;;;;;;;22.35;5.85;;;;;;;;;;5071423;28;20103;-66
2021/08/27 06:27:25;;;;;;;16.35;3.20;;;;;;;;;;5079900;28;20020;-66
2021/08/27 06:29:50;;;;;;;22.65;3.67;;;;;;;;;;5071042;28;20059;-67
2021/08/27 06:32:16;;;;;;;13.40;3.40;;;;;;;;;;5070822;28;20025;-67
2021/08/27 06:34:41;;;;;;;15.73;4.60;;;;;;;;;;5070926;28;20483;-67
2021/08/27 06:37:06;;;;;;;15.53;3.63;;;;;;;;;;5070159;28;20389;-66
2021/08/27 06:39:31;;;;;;;16.83;4.55;;;;;;;;;;5062010;28;20263;-67
2021/08/27 06:41:57;;;;;;;16.27;3.30;;;;;;;;;;5066702;28;20438;-66
2021/08/27 06:44:22;;;;;;;9.38;3.47;;;;;;;;;;5070762;28;20028;-68
2021/08/27 06:46:48;;;;;;;20.35;4.30;;;;;;;;;;5069960;28;20039;-66
2021/08/27 06:49:13;;;;;;;18.50;4.43;;;;;;;;;;5070917;28;20091;-67
2021/08/27 06:51:39;;;;;;;17.40;4.32;;;;;;;;;;5070692;28;20107;-66
2021/08/27 06:54:04;;;;;;;13.80;4.10;;;;;;;;;;5068998;28;20044;-67
2021/08/27 06:56:30;;;;;;;14.70;5.53;;;;;;;;;;5070756;28;20020;-67
2021/08/27 06:58:55;;;;;;;13.57;4.35;;;;;;;;;;5070536;28;20359;-69
2021/08/27 07:01:20;;;;;;;15.98;5.30;;;;;;;;;;5070774;28;20044;-67
2021/08/27 07:03:46;;;;;;;14.68;5.47;;;;;;;;;;5070390;28;20029;-68
2021/08/27 07:06:12;;;;;;;19.38;7.63;;;;;;;;;;5071045;28;20044;-66
2021/08/27 07:08:37;;;;;;;47.78;11.25;;;;;;;;;;5070833;28;20099;-66
2021/08/27 07:11:02;;;;;;;25.23;8.87;;;;;;;;;;5051887;28;20185;-67
2021/08/27 07:13:27;;;;;;;35.85;9.75;;;;;;;;;;5069917;28;20287;-67
2021/08/27 07:15:55;;;;;;;31.23;10.52;;;;;;;;;;5070647;28;20620;-67
2021/08/27 07:18:21;;;;;;;31.08;11.55;;;;;;;;;;5070585;28;20043;-67
2021/08/27 07:20:46;;;;;;;27.92;10.50;;;;;;;;;;5070590;28;20020;-67
2021/08/27 07:23:13;;;;;;;21.33;10.38;;;;;;;;;;5070087;28;20024;-67
2021/08/27 07:25:39;;;;;;;26.17;11.00;;;;;;;;;;5069892;28;20112;-67
2021/08/27 07:28:04;;;;;;;29.37;11.03;;;;;;;;;;5070635;28;20048;-67
2021/08/27 07:30:29;;;;;;;31.00;10.97;;;;;;;;;;5070287;28;20620;-67
2021/08/27 07:32:54;;;;;;;31.95;12.23;;;;;;;;;;5070303;28;20263;-67
2021/08/27 07:35:19;;;;;;;23.10;11.17;;;;;;;;;;5070215;28;20039;-67
2021/08/27 07:37:45;;;;;;;29.63;11.30;;;;;;;;;;5070154;28;20321;-67
2021/08/27 07:40:14;;;;;;;29.80;11.55;;;;;;;;;;5070361;28;20305;-69
2021/08/27 07:42:40;;;;;;;28.58;10.98;;;;;;;;;;5064686;28;20047;-68
2021/08/27 07:45:05;;;;;;;16.95;8.60;;;;;;;;;;5070405;28;20021;-68
2021/08/27 07:47:30;;;;;;;27.27;9.48;;;;;;;;;;5069958;28;20113;-67
2021/08/27 07:49:55;;;;;;;34.70;9.18;;;;;;;;;;5070382;28;20095;-67
2021/08/27 07:52:21;;;;;;;29.50;9.77;;;;;;;;;;5069396;28;20036;-67
2021/08/27 07:54:46;;;;;;;17.05;9.15;;;;;;;;;;5069167;28;20289;-67
2021/08/27 07:57:12;;;;;;;27.08;9.88;;;;;;;;;;5069751;28;20025;-68
2021/08/27 07:59:37;;;;;;;20.13;8.57;;;;;;;;;;5069998;28;20052;-67
2021/08/27 08:02:02;;;;;;;24.53;10.30;;;;;;;;;;5069591;28;20016;-67
2021/08/27 08:04:27;;;;;;;23.50;10.90;;;;;;;;;;5069577;28;20658;-67
2021/08/27 08:06:53;;;;;;;20.20;10.75;;;;;;;;;;5073287;28;20059;-68
2021/08/27 08:09:18;;;;;;;30.23;11.43;;;;;;;;;;5073939;28;20108;-67
2021/08/27 08:11:43;;;;;;;18.83;10.00;;;;;;;;;;5073500;28;20032;-70
2021/08/27 08:14:08;;;;;;;21.60;10.17;;;;;;;;;;5073036;28;20047;-67
2021/08/27 08:16:34;;;;;;;19.35;9.43;;;;;;;;;;5073094;28;20312;-68
2021/08/27 08:18:59;;;;;;;23.27;11.35;;;;;;;;;;5073462;28;20020;-67
2021/08/27 08:21:24;;;;;;;22.17;10.47;;;;;;;;;;5073624;28;20440;-69
2021/08/27 08:23:50;;;;;;;23.85;10.40;;;;;;;;;;5073415;28;20262;-67
2021/08/27 08:26:15;;;;;;;33.85;12.70;;;;;;;;;;5073318;28;20495;-67
2021/08/27 08:28:41;;;;;;;27.42;10.57;;;;;;;;;;5073325;28;20070;-70
2021/08/27 08:31:06;;;;;;;25.37;10.17;;;;;;;;;;5073172;28;20074;-67
2021/08/27 08:33:31;;;;;;;29.80;12.63;;;;;;;;;;5073111;28;20756;-69
2021/08/27 08:35:56;;;;;;;32.45;14.85;;;;;;;;;;5073204;28;20346;-67
2021/08/27 08:38:23;;;;;;;38.65;14.77;;;;;;;;;;5073248;28;20063;-69
2021/08/27 08:40:48;;;;;;;36.85;15.65;;;;;;;;;;5073044;28;20103;-68
2021/08/27 08:43:14;;;;;;;26.58;14.27;;;;;;;;;;5072618;28;20060;-67
2021/08/27 08:45:43;;;;;;;30.90;14.00;;;;;;;;;;5073364;28;20020;-67
2021/08/27 08:48:09;;;;;;;21.13;13.43;;;;;;;;;;5072571;28;20393;-67
2021/08/27 08:50:34;;;;;;;26.38;13.55;;;;;;;;;;5073169;28;20020;-67
2021/08/27 08:53:00;;;;;;;23.40;12.27;;;;;;;;;;5071064;28;20028;-66
2021/08/27 08:55:26;;;;;;;21.17;11.25;;;;;;;;;;5062783;28;20043;-69
2021/08/27 08:57:51;;;;;;;25.33;11.95;;;;;;;;;;5066722;28;20021;-67
2021/08/27 09:00:17;;;;;;;20.38;10.57;;;;;;;;;;5060534;28;20016;-67
2021/08/27 09:02:42;;;;;;;24.38;10.60;;;;;;;;;;5072616;28;20021;-68
2021/08/27 09:05:07;;;;;;;22.15;9.73;;;;;;;;;;5072478;28;20055;-67
2021/08/27 09:07:32;;;;;;;24.13;9.60;;;;;;;;;;5072481;28;20025;-67
2021/08/27 09:09:58;;;;;;;28.70;10.45;;;;;;;;;;5072319;28;20432;-67
2021/08/27 09:12:27;;;;;;;30.13;12.73;;;;;;;;;;5072323;28;20107;-67
2021/08/27 09:14:56;;;;;;;26.00;14.27;;;;;;;;;;5072363;28;20481;-67
2021/08/27 09:17:29;;;;;;;26.60;13.30;;;;;;;;;;5071576;28;20024;-67
2021/08/27 09:19:54;;;;;;;23.98;12.50;;;;;;;;;;5072425;28;20255;-67
2021/08/27 09:22:20;;;;;;;26.30;12.38;;;;;;;;;;5072304;28;20016;-67
2021/08/27 09:25:02;;;;;;;21.02;10.55;;;;;;;;;;5054229;28;20040;-67
2021/08/27 09:27:27;;;;;;;26.73;12.20;;;;;;;;;;5072062;28;20035;-67
2021/08/27 09:29:52;;;;;;;19.80;9.82;;;;;;;;;;5072008;28;20021;-67
2021/08/27 09:32:19;;;;;;;25.50;10.20;;;;;;;;;;5072022;28;20020;-67
2021/08/27 09:34:44;;;;;;;16.42;9.07;;;;;;;;;;5072250;28;20271;-69
2021/08/27 09:37:09;;;;;;;17.75;9.68;;;;;;;;;;5071599;28;20382;-67
2021/08/27 09:39:35;;;;;;;23.63;9.83;;;;;;;;;;5071361;28;20044;-69
2021/08/27 09:42:01;;;;;;;24.13;8.32;;;;;;;;;;5063376;28;20734;-67
2021/08/27 09:44:26;;;;;;;16.50;7.45;;;;;;;;;;5052251;28;20502;-67
2021/08/27 09:46:51;;;;;;;12.75;6.35;;;;;;;;;;5052118;28;20039;-68
2021/08/27 09:49:22;;;;;;;13.75;4.60;;;;;;;;;;5081131;28;20028;-67
2021/08/27 09:51:48;;;;;;;15.48;5.20;;;;;;;;;;5082314;28;20494;-68
2021/08/27 09:54:21;;;;;;;12.02;4.22;;;;;;;;;;5071582;28;20057;-67
2021/08/27 09:56:47;;;;;;;13.57;3.90;;;;;;;;;;5072151;28;20295;-68
2021/08/27 09:59:13;;;;;;;13.00;3.47;;;;;;;;;;5071589;28;20405;-67
2021/08/27 10:01:48;;;;;;;12.02;3.58;;;;;;;;;;5071357;28;20016;-67
2021/08/27 10:04:13;;;;;;;9.70;2.95;;;;;;;;;;5071400;28;20107;-68
2021/08/27 10:06:39;;;;;;;11.95;3.15;;;;;;;;;;5071508;28;20104;-68
2021/08/27 10:09:04;;;;;;;10.20;2.70;;;;;;;;;;5071158;28;20022;-69
2021/08/27 10:11:30;;;;;;;8.73;3.45;;;;;;;;;;5070986;28;20036;-68
2021/08/27 10:13:56;;;;;;;10.65;2.80;;;;;;;;;;5070967;28;20024;-68
2021/08/27 10:16:21;;;;;;;12.38;3.10;;;;;;;;;;5071477;28;20087;-67
2021/08/27 10:18:47;;;;;;;13.48;3.25;;;;;;;;;;5071216;28;20020;-68
2021/08/27 10:21:13;;;;;;;15.60;3.10;;;;;;;;;;5071013;28;20028;-67
2021/08/27 10:23:38;;;;;;;12.00;4.13;;;;;;;;;;5071177;28;20500;-67
2021/08/27 10:26:22;;;;;;;15.18;3.45;;;;;;;;;;5070806;28;20029;-65
2021/08/27 10:28:48;;;;;;;16.20;4.07;;;;;;;;;;5070982;28;20020;-67
2021/08/27 10:31:13;;;;;;;11.10;2.95;;;;;;;;;;5070880;28;20058;-68
2021/08/27 10:33:39;;;;;;;10.70;3.10;;;;;;;;;;5070586;28;20432;-69
2021/08/27 10:36:04;;;;;;;12.20;3.70;;;;;;;;;;5070304;28;20013;-67
2021/08/27 10:38:40;;;;;;;9.88;4.70;;;;;;;;;;5070536;28;20027;-68
2021/08/27 10:41:14;;;;;;;10.98;3.80;;;;;;;;;;5070410;28;20020;-68
2021/08/27 10:43:56;;;;;;;11.40;3.20;;;;;;;;;;5070569;28;20035;-68
2021/08/27 10:46:22;;;;;;;10.85;2.90;;;;;;;;;;5070037;28;20025;-67
2021/08/27 10:48:49;;;;;;;11.15;2.50;;;;;;;;;;5070239;28;20024;-69
2021/08/27 10:51:32;;;;;;;12.32;2.70;;;;;;;;;;5070541;28;20095;-67
2021/08/27 10:53:58;;;;;;;9.00;3.00;;;;;;;;;;5070148;28;20070;-67
2021/08/27 10:56:41;;;;;;;9.45;2.20;;;;;;;;;;5070629;28;20020;-67
2021/08/27 10:59:07;;;;;;;11.82;2.25;;;;;;;;;;5070534;28;20572;-68
2021/08/27 11:01:36;;;;;;;12.65;2.30;;;;;;;;;;5070190;28;20031;-67
2021/08/27 11:04:24;;;;;;;14.38;2.83;;;;;;;;;;5069976;28;20048;-69
2021/08/27 11:06:50;;;;;;;17.50;2.17;;;;;;;;;;5070857;28;20021;-67
2021/08/27 11:09:15;;;;;;;12.80;2.70;;;;;;;;;;5070435;28;20386;-67
2021/08/27 11:11:40;;;;;;;7.90;2.00;;;;;;;;;;5070117;28;20036;-70
2021/08/27 11:14:15;;;;;;;12.02;2.22;;;;;;;;;;5069943;28;20020;-67
2021/08/27 11:16:41;;;;;;;8.95;2.08;;;;;;;;;;5070207;28;20016;-69
2021/08/27 11:19:25;;;;;;;10.43;2.15;;;;;;;;;;5070485;28;20023;-67
2021/08/27 11:21:55;;;;;;;13.65;2.10;;;;;;;;;;5069971;28;20095;-69
2021/08/27 11:24:23;;;;;;;6.72;1.65;;;;;;;;;;5050531;28;20500;-67
2021/08/27 11:26:58;;;;;;;9.10;1.95;;;;;;;;;;5050138;28;20045;-69
2021/08/27 11:29:36;;;;;;;7.97;1.83;;;;;;;;;;5059167;28;20029;-68
2021/08/27 11:32:09;;;;;;;10.43;1.73;;;;;;;;;;5069342;28;20086;-70
2021/08/27 11:34:51;;;;;;;13.07;1.92;;;;;;;;;;5069586;28;20470;-68
2021/08/27 11:37:16;;;;;;;10.60;2.10;;;;;;;;;;5069868;28;20359;-67
2021/08/27 11:39:41;;;;;;;18.58;2.30;;;;;;;;;;5071385;28;20013;-68
2021/08/27 11:42:07;;;;;;;9.70;1.67;;;;;;;;;;5076222;28;20102;-67
2021/08/27 11:44:40;;;;;;;8.70;1.70;;;;;;;;;;5076447;28;20129;-68
2021/08/27 11:47:06;;;;;;;8.35;2.30;;;;;;;;;;5076097;28;20036;-68
2021/08/27 11:49:36;;;;;;;7.40;2.13;;;;;;;;;;5076744;28;20028;-69
2021/08/27 11:52:02;;;;;;;11.43;1.80;;;;;;;;;;5076133;28;20017;-67
2021/08/27 11:54:28;;;;;;;9.90;1.90;;;;;;;;;;5072175;28;20353;-69
2021/08/27 11:56:55;;;;;;;6.15;1.48;;;;;;;;;;5076395;28;20559;-67
2021/08/27 11:59:24;;;;;;;7.35;2.30;;;;;;;;;;5076470;28;20024;-69
2021/08/27 12:01:50;;;;;;;7.82;1.60;;;;;;;;;;5075942;28;20017;-68
2021/08/27 12:04:22;;;;;;;9.57;2.35;;;;;;;;;;5076592;28;20028;-68
2021/08/27 12:06:47;;;;;;;6.43;1.88;;;;;;;;;;5076673;28;20421;-68
2021/08/27 12:09:12;;;;;;;18.13;2.85;;;;;;;;;;5076138;28;20108;-69
2021/08/27 12:11:39;;;;;;;10.18;2.22;;;;;;;;;;5076158;28;20406;-67
2021/08/27 12:14:04;;;;;;;8.60;2.05;;;;;;;;;;5149622;22;20043;-71
2021/08/27 12:16:29;;;;;;;8.57;2.08;;;;;;;;;;5135333;27;20521;-71
2021/08/27 12:18:55;;;;;;;5.83;1.60;;;;;;;;;;5136965;27;20015;-71
2021/08/27 12:21:25;;;;;;;7.40;2.38;;;;;;;;;;5137036;27;20255;-71
2021/08/27 12:24:16;;;;;;;8.15;1.70;;;;;;;;;;5137482;27;20427;-71
2021/08/27 12:26:42;;;;;;;6.80;1.35;;;;;;;;;;5132775;27;20034;-71
2021/08/27 12:29:16;;;;;;;8.45;1.77;;;;;;;;;;5133702;27;20020;-71
2021/08/27 12:31:41;;;;;;;7.97;2.13;;;;;;;;;;5117176;28;20011;-72
2021/08/27 12:34:07;;;;;;;6.20;1.50;;;;;;;;;;5116852;28;20393;-72
2021/08/27 12:36:36;;;;;;;10.65;1.63;;;;;;;;;;5118314;27;20039;-71
2021/08/27 12:39:02;;;;;;;5.68;1.35;;;;;;;;;;5129918;27;20015;-71
2021/08/27 12:41:29;;;;;;;6.50;1.50;;;;;;;;;;5137837;27;20030;-71
2021/08/27 12:44:06;;;;;;;6.97;1.10;;;;;;;;;;5137381;27;20043;-71
2021/08/27 12:46:31;;;;;;;10.77;1.95;;;;;;;;;;5125008;27;20023;-71
2021/08/27 12:49:15;;;;;;;7.80;1.77;;;;;;;;;;5117159;27;20059;-71
2021/08/27 12:51:48;;;;;;;11.55;1.70;;;;;;;;;;5134222;27;20119;-72
2021/08/27 12:54:14;;;;;;;9.63;1.83;;;;;;;;;;5151695;27;20030;-71
2021/08/27 12:56:39;;;;;;;9.93;1.80;;;;;;;;;;5155031;27;20093;-71
2021/08/27 12:59:18;;;;;;;9.23;1.95;;;;;;;;;;5152414;27;20043;-71
2021/08/27 13:01:44;;;;;;;7.88;1.80;;;;;;;;;;5133916;27;20030;-72
2021/08/27 13:04:09;;;;;;;13.98;2.80;;;;;;;;;;5126987;27;20023;-71
2021/08/27 13:06:36;;;;;;;9.93;2.60;;;;;;;;;;5124187;27;20370;-71
2021/08/27 13:09:03;;;;;;;8.93;2.30;;;;;;;;;;5120736;27;20262;-71
2021/08/27 13:11:42;;;;;;;10.45;2.45;;;;;;;;;;5132361;27;20030;-70
2021/08/27 13:14:30;;;;;;;7.73;2.00;;;;;;;;;;5132726;27;20035;-71
2021/08/27 13:17:04;;;;;;;8.57;2.00;;;;;;;;;;5108715;27;20042;-70
2021/08/27 13:19:45;;;;;;;11.15;2.72;;;;;;;;;;5117937;27;20376;-70
2021/08/27 13:22:11;;;;;;;10.35;2.40;;;;;;;;;;5119441;27;20046;-70
2021/08/27 13:24:36;;;;;;;5.55;2.38;;;;;;;;;;5123757;27;20046;-70
2021/08/27 13:27:01;;;;;;;9.77;1.77;;;;;;;;;;5122214;27;20496;-70
2021/08/27 13:29:26;;;;;;;8.05;1.55;;;;;;;;;;5122642;27;20054;-70
2021/08/27 13:31:51;;;;;;;4.70;1.33;;;;;;;;;;5136391;27;20019;-70
2021/08/27 13:34:17;;;;;;;11.93;2.10;;;;;;;;;;5154150;27;20747;-70
2021/08/27 13:36:42;;;;;;;11.35;1.48;;;;;;;;;;5135201;27;20272;-70
2021/08/27 13:39:12;;;;;;;4.23;1.10;;;;;;;;;;5133369;27;20026;-70
2021/08/27 13:41:37;;;;;;;7.47;1.10;;;;;;;;;;5126596;27;20259;-70
2021/08/27 13:44:03;;;;;;;7.05;2.92;;;;;;;;;;5112462;28;20031;-70
2021/08/27 13:46:28;;;;;;;11.35;1.80;;;;;;;;;;5112838;28;20023;-70
2021/08/27 13:48:53;;;;;;;5.18;2.05;;;;;;;;;;5133138;27;20469;-70
2021/08/27 13:51:18;;;;;;;7.27;1.63;;;;;;;;;;5132905;27;20019;-70
2021/08/27 13:53:43;;;;;;;5.88;1.80;;;;;;;;;;5132698;27;20311;-70
2021/08/27 13:56:08;;;;;;;8.90;1.60;;;;;;;;;;5132979;27;20028;-70
2021/08/27 13:58:34;;;;;;;5.23;1.47;;;;;;;;;;5115111;27;20027;-70
2021/08/27 14:00:59;;;;;;;6.85;1.63;;;;;;;;;;5112135;28;20257;-71
2021/08/27 14:03:24;;;;;;;15.17;2.33;;;;;;;;;;5112147;28;20011;-70
2021/08/27 14:05:49;;;;;;;10.97;2.17;;;;;;;;;;5128721;27;20676;-71
2021/08/27 14:08:14;;;;;;;6.32;2.05;;;;;;;;;;5118863;27;20258;-71
2021/08/27 14:10:40;;;;;;;7.17;1.83;;;;;;;;;;5112372;28;20068;-71
2021/08/27 14:13:11;;;;;;;8.60;2.22;;;;;;;;;;5104063;27;20395;-71
2021/08/27 14:15:36;;;;;;;10.65;2.58;;;;;;;;;;5092111;28;20091;-71
2021/08/27 14:18:02;;;;;;;12.70;2.83;;;;;;;;;;5103358;28;20111;-71
2021/08/27 14:20:27;;;;;;;7.45;2.85;;;;;;;;;;5112556;28;20094;-71
2021/08/27 14:22:52;;;;;;;14.27;3.03;;;;;;;;;;5112015;28;20041;-71
2021/08/27 14:25:17;;;;;;;12.57;2.90;;;;;;;;;;5111727;28;20266;-71
2021/08/27 14:27:43;;;;;;;7.20;3.23;;;;;;;;;;5103816;28;20593;-71
2021/08/27 14:30:11;;;;;;;15.63;3.28;;;;;;;;;;5091610;28;20288;-71